BAW153 EHEH-EGKK
Flight info
| Callsign | BAW153 |
|---|---|
| Flight time | 0h 49m |
| Altitude | 24000 |
| Route | ABNED Z344 AMRIV Q63 ARREK Y4 TEBRA |
| Aircraft | A320/M-SDE3FGHIRWY/LB1 |
Departure
| Time | 2026-05-06 21:28 |
|---|---|
| Airport | Eindhoven Airport (EHEH) |
Arrival
| Time | 2026-05-06 22:17 |
|---|---|
| Airport | London Gatwick Airport (EGKK) |
| Time | Latitude | Longitude | Altitude | Speed | Heading |
|---|---|---|---|---|---|
| 2026-05-06 20:56 | 51.45686 | 5.38853 | 75 ft | 0 kts | 125° |
| 2026-05-06 21:18 | 51.45688 | 5.38849 | 74 ft | 2 kts | 125° |
| 2026-05-06 21:19 | 51.45698 | 5.38828 | 64 ft | 2 kts | 129° |
| 2026-05-06 21:19 | 51.45709 | 5.38808 | 65 ft | 2 kts | 136° |
| 2026-05-06 21:19 | 51.45722 | 5.38791 | 72 ft | 2 kts | 149° |
| 2026-05-06 21:19 | 51.45737 | 5.38781 | 71 ft | 2 kts | 180° |
| 2026-05-06 21:20 | 51.45753 | 5.38786 | 64 ft | 2 kts | 211° |
| 2026-05-06 21:20 | 51.45756 | 5.38790 | 72 ft | 0 kts | 213° |
| 2026-05-06 21:21 | 51.45764 | 5.38798 | 64 ft | 2 kts | 212° |
| 2026-05-06 21:21 | 51.45777 | 5.38812 | 64 ft | 2 kts | 214° |
| 2026-05-06 21:21 | 51.45790 | 5.38828 | 65 ft | 2 kts | 218° |
| 2026-05-06 21:21 | 51.45792 | 5.38830 | 65 ft | 0 kts | 218° |
| 2026-05-06 21:22 | 51.45792 | 5.38823 | 65 ft | 2 kts | 253° |
| 2026-05-06 21:22 | 51.45807 | 5.38747 | 72 ft | 9 kts | 302° |
| 2026-05-06 21:22 | 51.45838 | 5.38674 | 70 ft | 9 kts | 305° |
| 2026-05-06 21:22 | 51.45887 | 5.38565 | 73 ft | 17 kts | 306° |
| 2026-05-06 21:23 | 51.45972 | 5.38370 | 78 ft | 23 kts | 309° |
| 2026-05-06 21:23 | 51.45967 | 5.38224 | 74 ft | 11 kts | 201° |
| 2026-05-06 21:23 | 51.45871 | 5.38128 | 76 ft | 21 kts | 214° |
| 2026-05-06 21:23 | 51.45745 | 5.37991 | 73 ft | 23 kts | 213° |
| 2026-05-06 21:24 | 51.45605 | 5.37832 | 85 ft | 25 kts | 214° |
| 2026-05-06 21:24 | 51.45451 | 5.37663 | 81 ft | 28 kts | 213° |
| 2026-05-06 21:24 | 51.45282 | 5.37474 | 81 ft | 32 kts | 214° |
| 2026-05-06 21:24 | 51.45092 | 5.37261 | 84 ft | 34 kts | 214° |
| 2026-05-06 21:25 | 51.44897 | 5.37040 | 88 ft | 35 kts | 216° |
| 2026-05-06 21:25 | 51.44713 | 5.36834 | 85 ft | 31 kts | 216° |
| 2026-05-06 21:25 | 51.44664 | 5.36777 | 83 ft | 0 kts | 216° |
| 2026-05-06 21:25 | 51.44646 | 5.36756 | 81 ft | 9 kts | 214° |
| 2026-05-06 21:26 | 51.44555 | 5.36658 | 75 ft | 22 kts | 217° |
| 2026-05-06 21:26 | 51.44403 | 5.36488 | 73 ft | 31 kts | 214° |
| 2026-05-06 21:26 | 51.44233 | 5.36298 | 83 ft | 17 kts | 215° |
| 2026-05-06 21:26 | 51.44150 | 5.36325 | 84 ft | 14 kts | 106° |
| 2026-05-06 21:27 | 51.44157 | 5.36494 | 83 ft | 21 kts | 38° |
| 2026-05-06 21:27 | 51.44170 | 5.36511 | 82 ft | 0 kts | 35° |
| 2026-05-06 21:27 | 51.44343 | 5.36702 | 68 ft | 69 kts | 36° |
| 2026-05-06 21:27 | 51.44923 | 5.37358 | 78 ft | 132 kts | 34° |
| 2026-05-06 21:28 | 51.45821 | 5.38363 | 84 ft | 181 kts | 35° |
| 2026-05-06 21:28 | 51.46875 | 5.39548 | 646 ft | 184 kts | 34° |
| 2026-05-06 21:28 | 51.47925 | 5.40711 | 1504 ft | 183 kts | 34° |
| 2026-05-06 21:28 | 51.48955 | 5.41837 | 2317 ft | 176 kts | 33° |
| 2026-05-06 21:29 | 51.50017 | 5.42968 | 2713 ft | 194 kts | 33° |
| 2026-05-06 21:29 | 51.51269 | 5.44118 | 2981 ft | 219 kts | 17° |
| 2026-05-06 21:29 | 51.52785 | 5.44014 | 3718 ft | 225 kts | 337° |
| 2026-05-06 21:29 | 51.53904 | 5.42329 | 4660 ft | 225 kts | 297° |
| 2026-05-06 21:30 | 51.54127 | 5.39841 | 5303 ft | 238 kts | 262° |
| 2026-05-06 21:30 | 51.53685 | 5.37205 | 5878 ft | 247 kts | 255° |
| 2026-05-06 21:30 | 51.53336 | 5.35475 | 6473 ft | 245 kts | 253° |
| 2026-05-06 21:30 | 51.52798 | 5.32904 | 7320 ft | 241 kts | 253° |
| 2026-05-06 21:31 | 51.52263 | 5.30384 | 8151 ft | 237 kts | 252° |
| 2026-05-06 21:31 | 51.51728 | 5.27909 | 8986 ft | 232 kts | 252° |
| 2026-05-06 21:31 | 51.51197 | 5.25494 | 9770 ft | 229 kts | 251° |
| 2026-05-06 21:31 | 51.50716 | 5.22960 | 10084 ft | 247 kts | 254° |
| 2026-05-06 21:32 | 51.50345 | 5.20181 | 10444 ft | 261 kts | 267° |
| 2026-05-06 21:32 | 51.51111 | 5.14349 | 11322 ft | 284 kts | 288° |
| 2026-05-06 21:32 | 51.51690 | 5.11222 | 11660 ft | 300 kts | 286° |
| 2026-05-06 21:33 | 51.52265 | 5.07901 | 11992 ft | 317 kts | 285° |
| 2026-05-06 21:33 | 51.52853 | 5.04392 | 12298 ft | 334 kts | 285° |
| 2026-05-06 21:33 | 51.53465 | 5.00705 | 12579 ft | 350 kts | 285° |
| 2026-05-06 21:33 | 51.54105 | 4.96852 | 12940 ft | 362 kts | 285° |
| 2026-05-06 21:34 | 51.54760 | 4.92921 | 13554 ft | 366 kts | 285° |
| 2026-05-06 21:34 | 51.55424 | 4.88957 | 14167 ft | 369 kts | 285° |
| 2026-05-06 21:34 | 51.56095 | 4.84965 | 14757 ft | 371 kts | 285° |
| 2026-05-06 21:34 | 51.56769 | 4.80948 | 15350 ft | 374 kts | 285° |
| 2026-05-06 21:35 | 51.57446 | 4.76894 | 15920 ft | 377 kts | 285° |
| 2026-05-06 21:35 | 51.58126 | 4.72813 | 16504 ft | 379 kts | 285° |
| 2026-05-06 21:35 | 51.58813 | 4.68699 | 17080 ft | 382 kts | 285° |
| 2026-05-06 21:35 | 51.59505 | 4.64557 | 17653 ft | 385 kts | 285° |
| 2026-05-06 21:36 | 51.60201 | 4.60385 | 18232 ft | 388 kts | 284° |
| 2026-05-06 21:36 | 51.60897 | 4.56180 | 18731 ft | 390 kts | 284° |
| 2026-05-06 21:36 | 51.61596 | 4.51948 | 19233 ft | 393 kts | 284° |
| 2026-05-06 21:36 | 51.62300 | 4.47686 | 19728 ft | 395 kts | 284° |
| 2026-05-06 21:37 | 51.63005 | 4.43405 | 20205 ft | 397 kts | 284° |
| 2026-05-06 21:37 | 51.63712 | 4.39095 | 20678 ft | 399 kts | 284° |
| 2026-05-06 21:37 | 51.64421 | 4.34758 | 21136 ft | 402 kts | 284° |
| 2026-05-06 21:37 | 51.65129 | 4.30396 | 21586 ft | 404 kts | 283° |
| 2026-05-06 21:38 | 51.65829 | 4.26065 | 22018 ft | 406 kts | 283° |
| 2026-05-06 21:38 | 51.66552 | 4.21594 | 22447 ft | 408 kts | 283° |
| 2026-05-06 21:38 | 51.67271 | 4.17164 | 22859 ft | 410 kts | 283° |
| 2026-05-06 21:38 | 51.67993 | 4.12700 | 23258 ft | 413 kts | 283° |
| 2026-05-06 21:39 | 51.68714 | 4.08212 | 23626 ft | 415 kts | 283° |
| 2026-05-06 21:39 | 51.69425 | 4.03758 | 23886 ft | 417 kts | 283° |
| 2026-05-06 21:39 | 51.70147 | 3.99217 | 23967 ft | 422 kts | 283° |
| 2026-05-06 21:39 | 51.70879 | 3.94583 | 23974 ft | 430 kts | 283° |
| 2026-05-06 21:40 | 51.71617 | 3.89903 | 23975 ft | 431 kts | 283° |
| 2026-05-06 21:40 | 51.72360 | 3.85212 | 23974 ft | 431 kts | 283° |
| 2026-05-06 21:40 | 51.73165 | 3.80490 | 23976 ft | 432 kts | 285° |
| 2026-05-06 21:40 | 51.74027 | 3.75854 | 23979 ft | 432 kts | 286° |
| 2026-05-06 21:41 | 51.74922 | 3.71233 | 23977 ft | 431 kts | 286° |
| 2026-05-06 21:41 | 51.75812 | 3.66678 | 23978 ft | 431 kts | 286° |
| 2026-05-06 21:41 | 51.76715 | 3.62001 | 23982 ft | 430 kts | 286° |
| 2026-05-06 21:41 | 51.77576 | 3.57451 | 23980 ft | 430 kts | 285° |
| 2026-05-06 21:42 | 51.78434 | 3.52820 | 23981 ft | 432 kts | 285° |
| 2026-05-06 21:42 | 51.79294 | 3.48119 | 23984 ft | 440 kts | 285° |
| 2026-05-06 21:42 | 51.80165 | 3.43341 | 23984 ft | 448 kts | 285° |
| 2026-05-06 21:42 | 51.81053 | 3.38479 | 23985 ft | 453 kts | 285° |
| 2026-05-06 21:43 | 51.81946 | 3.33566 | 23989 ft | 458 kts | 285° |
| 2026-05-06 21:43 | 51.82847 | 3.28614 | 23988 ft | 461 kts | 285° |
| 2026-05-06 21:43 | 51.83583 | 3.23571 | 23991 ft | 461 kts | 277° |
| 2026-05-06 21:43 | 51.83718 | 3.18407 | 23996 ft | 461 kts | 266° |
| 2026-05-06 21:44 | 51.83233 | 3.13300 | 23997 ft | 461 kts | 255° |
| 2026-05-06 21:44 | 51.82148 | 3.08418 | 23997 ft | 462 kts | 245° |
| 2026-05-06 21:44 | 51.80698 | 3.03785 | 23999 ft | 462 kts | 243° |
| 2026-05-06 21:44 | 51.79238 | 2.99168 | 24001 ft | 462 kts | 243° |
| 2026-05-06 21:45 | 51.77769 | 2.94540 | 23999 ft | 463 kts | 243° |
| 2026-05-06 21:45 | 51.76298 | 2.89923 | 23999 ft | 463 kts | 243° |
| 2026-05-06 21:45 | 51.74821 | 2.85300 | 24004 ft | 464 kts | 243° |
| 2026-05-06 21:45 | 51.73343 | 2.80675 | 24015 ft | 464 kts | 243° |
| 2026-05-06 21:46 | 51.71864 | 2.76058 | 24016 ft | 463 kts | 243° |
| 2026-05-06 21:46 | 51.70383 | 2.71438 | 24015 ft | 464 kts | 243° |
| 2026-05-06 21:46 | 51.69134 | 2.66659 | 24018 ft | 463 kts | 252° |
| 2026-05-06 21:46 | 51.68405 | 2.61605 | 24018 ft | 464 kts | 262° |
| 2026-05-06 21:47 | 51.67950 | 2.56463 | 24018 ft | 464 kts | 262° |
| 2026-05-06 21:47 | 51.67489 | 2.51323 | 24018 ft | 464 kts | 262° |
| 2026-05-06 21:47 | 51.67023 | 2.46179 | 24016 ft | 464 kts | 262° |
| 2026-05-06 21:47 | 51.66552 | 2.41039 | 24018 ft | 464 kts | 261° |
| 2026-05-06 21:48 | 51.66075 | 2.35893 | 24019 ft | 464 kts | 261° |
| 2026-05-06 21:48 | 51.65596 | 2.30754 | 24019 ft | 465 kts | 261° |
| 2026-05-06 21:48 | 51.65116 | 2.25610 | 24017 ft | 464 kts | 261° |
| 2026-05-06 21:48 | 51.64636 | 2.20485 | 24008 ft | 458 kts | 261° |
| 2026-05-06 21:49 | 51.64168 | 2.15542 | 23795 ft | 437 kts | 261° |
| 2026-05-06 21:49 | 51.63721 | 2.10788 | 23554 ft | 424 kts | 261° |
| 2026-05-06 21:49 | 51.63282 | 2.06102 | 23278 ft | 423 kts | 261° |
| 2026-05-06 21:49 | 51.62848 | 2.01431 | 23002 ft | 421 kts | 261° |
| 2026-05-06 21:50 | 51.62421 | 1.96802 | 22513 ft | 415 kts | 262° |
| 2026-05-06 21:50 | 51.62001 | 1.92228 | 21844 ft | 411 kts | 262° |
| 2026-05-06 21:50 | 51.61447 | 1.87750 | 21227 ft | 406 kts | 254° |
| 2026-05-06 21:50 | 51.60442 | 1.83533 | 20601 ft | 403 kts | 244° |
| 2026-05-06 21:51 | 51.59103 | 1.79888 | 20044 ft | 400 kts | 235° |
| 2026-05-06 21:51 | 51.57347 | 1.76423 | 19482 ft | 398 kts | 230° |
| 2026-05-06 21:51 | 51.55519 | 1.73193 | 19354 ft | 383 kts | 228° |
| 2026-05-06 21:51 | 51.53674 | 1.70129 | 19280 ft | 387 kts | 227° |
| 2026-05-06 21:52 | 51.51720 | 1.66982 | 19042 ft | 404 kts | 226° |
| 2026-05-06 21:52 | 51.49726 | 1.63806 | 18800 ft | 403 kts | 226° |
| 2026-05-06 21:52 | 51.47741 | 1.60639 | 18557 ft | 402 kts | 226° |
| 2026-05-06 21:52 | 51.45764 | 1.57464 | 18320 ft | 401 kts | 226° |
| 2026-05-06 21:53 | 51.43802 | 1.54294 | 18045 ft | 400 kts | 226° |
| 2026-05-06 21:53 | 51.41854 | 1.51132 | 17703 ft | 398 kts | 226° |
| 2026-05-06 21:53 | 51.39916 | 1.47976 | 17392 ft | 396 kts | 227° |
| 2026-05-06 21:53 | 51.37987 | 1.44838 | 17072 ft | 395 kts | 226° |
| 2026-05-06 21:54 | 51.36065 | 1.41722 | 16756 ft | 393 kts | 226° |
| 2026-05-06 21:54 | 51.34147 | 1.38620 | 16444 ft | 391 kts | 226° |
| 2026-05-06 21:54 | 51.32236 | 1.35537 | 16132 ft | 390 kts | 226° |
| 2026-05-06 21:54 | 51.30331 | 1.32466 | 15828 ft | 388 kts | 226° |
| 2026-05-06 21:55 | 51.28431 | 1.29408 | 15518 ft | 387 kts | 226° |
| 2026-05-06 21:55 | 51.26536 | 1.26366 | 15216 ft | 385 kts | 226° |
| 2026-05-06 21:55 | 51.24651 | 1.23340 | 14921 ft | 384 kts | 226° |
| 2026-05-06 21:55 | 51.22770 | 1.20322 | 14623 ft | 383 kts | 226° |
| 2026-05-06 21:56 | 51.20895 | 1.17315 | 14331 ft | 382 kts | 226° |
| 2026-05-06 21:56 | 51.19025 | 1.14323 | 14043 ft | 380 kts | 226° |
| 2026-05-06 21:56 | 51.17262 | 1.11504 | 13766 ft | 379 kts | 226° |
| 2026-05-06 21:56 | 51.15402 | 1.08533 | 13442 ft | 377 kts | 226° |
| 2026-05-06 21:57 | 51.13574 | 1.05621 | 13138 ft | 376 kts | 226° |
| 2026-05-06 21:57 | 51.11729 | 1.02684 | 12854 ft | 375 kts | 226° |
| 2026-05-06 21:57 | 51.09889 | 0.99756 | 12565 ft | 373 kts | 226° |
| 2026-05-06 21:57 | 51.08054 | 0.96841 | 12279 ft | 372 kts | 226° |
| 2026-05-06 21:58 | 51.06306 | 0.93830 | 11992 ft | 370 kts | 233° |
| 2026-05-06 21:58 | 51.04914 | 0.90423 | 11712 ft | 367 kts | 243° |
| 2026-05-06 21:58 | 51.03820 | 0.86781 | 11432 ft | 360 kts | 245° |
| 2026-05-06 21:58 | 51.02771 | 0.83242 | 11155 ft | 348 kts | 245° |
| 2026-05-06 21:59 | 51.01750 | 0.79812 | 10878 ft | 338 kts | 245° |
| 2026-05-06 21:59 | 51.00759 | 0.76494 | 10609 ft | 328 kts | 245° |
| 2026-05-06 21:59 | 50.99792 | 0.73267 | 10351 ft | 319 kts | 245° |
| 2026-05-06 21:59 | 50.98849 | 0.70130 | 10075 ft | 311 kts | 245° |
| 2026-05-06 22:00 | 50.97928 | 0.67066 | 9798 ft | 304 kts | 245° |
| 2026-05-06 22:00 | 50.97027 | 0.64073 | 9502 ft | 297 kts | 245° |
| 2026-05-06 22:00 | 50.96146 | 0.61152 | 9204 ft | 290 kts | 245° |
| 2026-05-06 22:00 | 50.95285 | 0.58296 | 8913 ft | 284 kts | 245° |
| 2026-05-06 22:01 | 50.94438 | 0.55499 | 8624 ft | 280 kts | 245° |
| 2026-05-06 22:01 | 50.93598 | 0.52724 | 8336 ft | 278 kts | 245° |
| 2026-05-06 22:01 | 50.92763 | 0.49965 | 8050 ft | 277 kts | 245° |
| 2026-05-06 22:01 | 50.91986 | 0.47172 | 7767 ft | 276 kts | 253° |
| 2026-05-06 22:02 | 50.91644 | 0.44202 | 7482 ft | 274 kts | 269° |
| 2026-05-06 22:02 | 50.91810 | 0.41214 | 7209 ft | 273 kts | 284° |
| 2026-05-06 22:02 | 50.92334 | 0.38331 | 6936 ft | 272 kts | 287° |
| 2026-05-06 22:02 | 50.92745 | 0.35410 | 6793 ft | 272 kts | 274° |
| 2026-05-06 22:03 | 50.92813 | 0.32415 | 6694 ft | 272 kts | 271° |
| 2026-05-06 22:03 | 50.92827 | 0.29420 | 6591 ft | 272 kts | 270° |
| 2026-05-06 22:03 | 50.92835 | 0.26428 | 6496 ft | 271 kts | 270° |
| 2026-05-06 22:03 | 50.92842 | 0.23441 | 6397 ft | 271 kts | 270° |
| 2026-05-06 22:04 | 50.92847 | 0.20459 | 6292 ft | 270 kts | 270° |
| 2026-05-06 22:04 | 50.92851 | 0.17486 | 6186 ft | 269 kts | 270° |
| 2026-05-06 22:04 | 50.92853 | 0.14483 | 6079 ft | 269 kts | 270° |
| 2026-05-06 22:04 | 50.92854 | 0.11525 | 5969 ft | 268 kts | 270° |
| 2026-05-06 22:05 | 50.92854 | 0.08580 | 5835 ft | 267 kts | 270° |
| 2026-05-06 22:05 | 50.92853 | 0.05647 | 5706 ft | 267 kts | 270° |
| 2026-05-06 22:05 | 50.92851 | 0.02707 | 5577 ft | 266 kts | 270° |
| 2026-05-06 22:05 | 50.92849 | -0.00218 | 5447 ft | 265 kts | 270° |
| 2026-05-06 22:06 | 50.92846 | -0.03138 | 5318 ft | 264 kts | 270° |
| 2026-05-06 22:06 | 50.92842 | -0.06044 | 5191 ft | 264 kts | 270° |
| 2026-05-06 22:06 | 50.92836 | -0.08920 | 5064 ft | 263 kts | 270° |
| 2026-05-06 22:06 | 50.92829 | -0.11854 | 4936 ft | 263 kts | 270° |
| 2026-05-06 22:07 | 50.92822 | -0.14748 | 4804 ft | 260 kts | 270° |
| 2026-05-06 22:07 | 50.92814 | -0.17594 | 4675 ft | 262 kts | 270° |
| 2026-05-06 22:07 | 50.92804 | -0.20477 | 4528 ft | 262 kts | 270° |
| 2026-05-06 22:07 | 50.92790 | -0.23365 | 4408 ft | 262 kts | 270° |
| 2026-05-06 22:08 | 50.92775 | -0.26244 | 4283 ft | 261 kts | 270° |
| 2026-05-06 22:08 | 50.92759 | -0.29115 | 4172 ft | 257 kts | 270° |
| 2026-05-06 22:08 | 50.92740 | -0.31874 | 4070 ft | 243 kts | 270° |
| 2026-05-06 22:08 | 50.92703 | -0.34483 | 3967 ft | 231 kts | 269° |
| 2026-05-06 22:09 | 50.92682 | -0.36959 | 3859 ft | 219 kts | 277° |
| 2026-05-06 22:09 | 50.93136 | -0.39203 | 3753 ft | 214 kts | 304° |
| 2026-05-06 22:09 | 50.94172 | -0.40854 | 3673 ft | 212 kts | 331° |
| 2026-05-06 22:09 | 50.95558 | -0.41652 | 3608 ft | 219 kts | 346° |
| 2026-05-06 22:10 | 50.97045 | -0.42261 | 3524 ft | 222 kts | 346° |
| 2026-05-06 22:10 | 50.98515 | -0.42875 | 3443 ft | 209 kts | 346° |
| 2026-05-06 22:10 | 50.99902 | -0.43461 | 3366 ft | 206 kts | 346° |
| 2026-05-06 22:10 | 51.01285 | -0.44046 | 3292 ft | 206 kts | 346° |
| 2026-05-06 22:11 | 51.02651 | -0.44626 | 3213 ft | 206 kts | 346° |
| 2026-05-06 22:11 | 51.04011 | -0.45203 | 3130 ft | 196 kts | 346° |
| 2026-05-06 22:11 | 51.05279 | -0.45741 | 3059 ft | 182 kts | 346° |
| 2026-05-06 22:11 | 51.06504 | -0.46260 | 3055 ft | 183 kts | 346° |
| 2026-05-06 22:12 | 51.07742 | -0.46782 | 3052 ft | 185 kts | 346° |
| 2026-05-06 22:12 | 51.08928 | -0.47252 | 3054 ft | 167 kts | 354° |
| 2026-05-06 22:12 | 51.10028 | -0.47018 | 3059 ft | 162 kts | 24° |
| 2026-05-06 22:12 | 51.10903 | -0.45927 | 3056 ft | 162 kts | 54° |
| 2026-05-06 22:13 | 51.11326 | -0.44236 | 3084 ft | 175 kts | 78° |
| 2026-05-06 22:13 | 51.11569 | -0.42423 | 3073 ft | 164 kts | 77° |
| 2026-05-06 22:13 | 51.11811 | -0.40658 | 3046 ft | 159 kts | 76° |
| 2026-05-06 22:13 | 51.12031 | -0.39045 | 2952 ft | 144 kts | 76° |
| 2026-05-06 22:14 | 51.12245 | -0.37505 | 2706 ft | 142 kts | 76° |
| 2026-05-06 22:14 | 51.12458 | -0.35980 | 2334 ft | 142 kts | 75° |
| 2026-05-06 22:14 | 51.12670 | -0.34459 | 2027 ft | 138 kts | 75° |
| 2026-05-06 22:14 | 51.12809 | -0.33464 | 1904 ft | 139 kts | 75° |
| 2026-05-06 22:15 | 51.13017 | -0.31973 | 1718 ft | 138 kts | 75° |
| 2026-05-06 22:15 | 51.13224 | -0.30487 | 1525 ft | 138 kts | 75° |
| 2026-05-06 22:15 | 51.13431 | -0.28998 | 1338 ft | 137 kts | 75° |
| 2026-05-06 22:15 | 51.13643 | -0.27506 | 1127 ft | 138 kts | 74° |
| 2026-05-06 22:16 | 51.13847 | -0.26013 | 906 ft | 138 kts | 76° |
| 2026-05-06 22:16 | 51.14046 | -0.24522 | 695 ft | 138 kts | 78° |
| 2026-05-06 22:16 | 51.14245 | -0.23030 | 541 ft | 138 kts | 77° |
| 2026-05-06 22:16 | 51.14460 | -0.21549 | 330 ft | 137 kts | 77° |
| 2026-05-06 22:17 | 51.14672 | -0.20074 | 213 ft | 133 kts | 77° |
| 2026-05-06 22:17 | 51.14832 | -0.18836 | 207 ft | 92 kts | 78° |
| 2026-05-06 22:17 | 51.14928 | -0.18159 | 215 ft | 38 kts | 77° |
| 2026-05-06 22:17 | 51.15024 | -0.17846 | 207 ft | 23 kts | 47° |
| 2026-05-06 22:18 | 51.15137 | -0.17752 | 205 ft | 18 kts | 17° |
| 2026-05-06 22:18 | 51.15192 | -0.17584 | 212 ft | 20 kts | 77° |
| 2026-05-06 22:18 | 51.15224 | -0.17351 | 207 ft | 23 kts | 78° |
| 2026-05-06 22:18 | 51.15264 | -0.17069 | 211 ft | 29 kts | 76° |
| 2026-05-06 22:19 | 51.15303 | -0.16791 | 215 ft | 19 kts | 77° |
| 2026-05-06 22:19 | 51.15350 | -0.16610 | 208 ft | 17 kts | 77° |
| 2026-05-06 22:19 | 51.15389 | -0.16465 | 213 ft | 10 kts | 64° |
| 2026-05-06 22:19 | 51.15400 | -0.16402 | 210 ft | 0 kts | 78° |